createdAt,value
2018-03-03T00:00:12.094Z,24.67
2018-03-03T00:02:39.827Z,23.60
2018-03-03T00:05:07.430Z,21.80
2018-03-03T00:07:35.055Z,20.90
2018-03-03T00:10:02.687Z,23.17
2018-03-03T00:12:31.158Z,21.27
2018-03-03T00:14:58.982Z,23.37
2018-03-03T00:17:26.573Z,23.63
2018-03-03T00:19:54.179Z,21.90
2018-03-03T00:25:20.322Z,23.37
2018-03-03T00:27:47.979Z,22.90
2018-03-03T00:30:15.750Z,24.17
2018-03-03T00:32:43.380Z,22.93
2018-03-03T00:35:11.793Z,22.00
2018-03-03T00:37:39.426Z,24.27
2018-03-03T00:40:07.046Z,22.50
2018-03-03T00:42:34.649Z,21.60
2018-03-03T00:45:03.175Z,20.57
2018-03-03T00:47:34.940Z,21.67
2018-03-03T00:50:02.587Z,21.03
2018-03-03T00:52:30.186Z,22.83
2018-03-03T00:54:58.595Z,21.67
2018-03-03T00:57:26.188Z,21.60
2018-03-03T00:59:53.784Z,22.30
2018-03-03T01:02:22.190Z,20.93
2018-03-03T01:04:49.858Z,20.07
2018-03-03T01:07:17.450Z,20.73
2018-03-03T01:09:45.083Z,21.10
2018-03-03T01:12:12.698Z,21.83
2018-03-03T01:14:40.299Z,22.03
2018-03-03T01:17:07.918Z,18.17
2018-03-03T01:19:35.528Z,21.63
2018-03-03T01:22:03.191Z,21.43
2018-03-03T01:24:30.794Z,20.37
2018-03-03T01:26:59.251Z,21.20
2018-03-03T01:29:26.935Z,22.13
2018-03-03T01:31:54.597Z,20.17
2018-03-03T01:34:22.202Z,20.67
2018-03-03T01:36:49.917Z,21.30
2018-03-03T01:39:17.543Z,21.67
2018-03-03T01:41:46.167Z,21.67
2018-03-03T01:44:14.547Z,20.53
2018-03-03T01:46:49.513Z,20.27
2018-03-03T01:49:17.111Z,20.00
2018-03-03T01:51:44.921Z,20.43
2018-03-03T01:54:13.359Z,18.80
2018-03-03T01:56:41.143Z,21.07
2018-03-03T01:59:09.539Z,21.47
2018-03-03T02:01:37.928Z,19.40
2018-03-03T02:04:05.582Z,18.57
2018-03-03T02:06:34.028Z,22.03
2018-03-03T02:09:01.645Z,22.23
2018-03-03T02:11:29.275Z,18.83
2018-03-03T02:13:57.662Z,19.93
2018-03-03T02:16:25.271Z,20.70
2018-03-03T02:18:52.899Z,20.00
2018-03-03T02:21:20.493Z,21.73
2018-03-03T02:23:48.150Z,20.77
2018-03-03T02:26:15.746Z,20.90
2018-03-03T02:28:44.094Z,21.90
2018-03-03T02:31:11.708Z,21.90
2018-03-03T02:33:39.917Z,21.37
2018-03-03T02:36:07.545Z,19.07
2018-03-03T02:38:35.151Z,21.07
2018-03-03T02:41:02.779Z,21.87
2018-03-03T02:43:30.417Z,20.80
2018-03-03T02:45:58.067Z,20.50
2018-03-03T02:48:26.930Z,20.60
2018-03-03T02:50:54.638Z,20.67
2018-03-03T02:53:22.252Z,22.00
2018-03-03T02:55:49.866Z,20.90
2018-03-03T02:58:17.499Z,18.67
2018-03-03T03:00:45.917Z,21.00
2018-03-03T03:03:13.549Z,20.80
2018-03-03T03:05:41.199Z,19.60
2018-03-03T03:08:09.609Z,20.83
2018-03-03T03:10:37.210Z,20.23
2018-03-03T03:13:04.830Z,20.43
2018-03-03T03:15:32.475Z,20.60
2018-03-03T03:18:00.198Z,20.53
2018-03-03T03:20:27.865Z,19.13
2018-03-03T03:22:56.222Z,20.10
2018-03-03T03:25:23.859Z,19.63
2018-03-03T03:27:51.495Z,19.97
2018-03-03T03:30:19.106Z,20.37
2018-03-03T03:32:47.511Z,19.77
2018-03-03T03:35:15.113Z,19.77
2018-03-03T03:37:42.754Z,20.57
2018-03-03T03:40:10.368Z,20.87
2018-03-03T03:42:37.997Z,18.90
2018-03-03T03:45:05.629Z,19.60
2018-03-03T03:47:33.275Z,20.33
2018-03-03T03:50:01.646Z,20.27
2018-03-03T03:52:30.915Z,19.53
2018-03-03T03:54:58.604Z,19.53
2018-03-03T03:57:27.019Z,20.63
2018-03-03T03:59:54.655Z,19.63
2018-03-03T04:02:23.043Z,16.87
2018-03-03T04:04:50.691Z,18.23
2018-03-03T04:07:19.072Z,19.77
2018-03-03T04:09:47.476Z,20.97
2018-03-03T04:12:15.123Z,19.47
2018-03-03T04:14:42.726Z,19.33
2018-03-03T04:17:10.343Z,19.70
2018-03-03T04:19:38.132Z,19.53
2018-03-03T04:22:05.791Z,19.53
2018-03-03T04:24:33.450Z,19.90
2018-03-03T04:27:01.037Z,19.30
2018-03-03T04:29:28.657Z,20.30
2018-03-03T04:31:56.272Z,18.23
2018-03-03T04:34:23.872Z,19.73
2018-03-03T04:36:51.512Z,20.17
2018-03-03T04:39:19.875Z,18.93
2018-03-03T04:41:48.311Z,20.00
2018-03-03T04:44:15.956Z,21.23
2018-03-03T04:46:43.614Z,18.60
2018-03-03T04:49:11.235Z,20.13
2018-03-03T04:51:38.829Z,20.23
2018-03-03T04:54:06.650Z,18.27
2018-03-03T04:56:34.298Z,19.97
2018-03-03T04:59:07.666Z,20.67
2018-03-03T05:04:44.763Z,19.40
2018-03-03T05:07:26.239Z,19.27
2018-03-03T05:09:53.854Z,20.20
2018-03-03T05:15:28.607Z,19.57
2018-03-03T05:18:02.618Z,18.17
2018-03-03T05:20:35.994Z,19.57
2018-03-03T05:23:09.447Z,21.03
2018-03-03T05:25:42.663Z,19.63
2018-03-03T05:31:20.626Z,19.70
2018-03-03T05:34:06.876Z,21.20
2018-03-03T05:36:40.273Z,19.33
2018-03-03T05:39:13.566Z,18.37
2018-03-03T05:41:44.785Z,19.53
2018-03-03T05:44:18.141Z,20.60
2018-03-03T05:47:05.617Z,19.30
2018-03-03T05:49:39.007Z,19.90
2018-03-03T05:55:17.169Z,20.77
2018-03-03T05:57:48.340Z,21.00
2018-03-03T06:00:29.511Z,20.50
2018-03-03T06:03:02.863Z,19.60
2018-03-03T06:08:35.818Z,20.50
2018-03-03T06:11:04.235Z,21.50
2018-03-03T06:13:31.855Z,18.83
2018-03-03T06:16:00.242Z,21.80
2018-03-03T06:18:28.922Z,17.90
2018-03-03T06:20:57.323Z,18.67
2018-03-03T06:23:24.997Z,20.10
2018-03-03T06:25:52.595Z,21.50
2018-03-03T06:28:20.186Z,19.73
2018-03-03T06:30:48.590Z,21.93
2018-03-03T06:33:16.199Z,21.67
2018-03-03T06:35:43.837Z,21.60
2018-03-03T06:38:11.518Z,19.70
2018-03-03T06:40:39.117Z,21.80
2018-03-03T06:43:06.774Z,22.23
2018-03-03T06:45:34.366Z,21.30
2018-03-03T06:48:02.014Z,21.27
2018-03-03T06:50:29.666Z,22.77
2018-03-03T06:52:57.255Z,21.67
2018-03-03T06:55:24.911Z,19.20
2018-03-03T06:57:52.543Z,22.97
2018-03-03T07:00:20.183Z,22.07
2018-03-03T07:02:47.790Z,21.63
2018-03-03T07:05:15.442Z,23.73
2018-03-03T07:07:43.105Z,20.77
2018-03-03T07:10:10.758Z,20.87
2018-03-03T07:12:38.405Z,22.50
2018-03-03T07:15:06.923Z,22.83
2018-03-03T07:17:35.281Z,22.73
2018-03-03T07:20:02.904Z,20.00
2018-03-03T07:22:31.375Z,20.20
2018-03-03T07:24:58.951Z,22.77
2018-03-03T07:27:26.555Z,21.93
2018-03-03T07:29:54.201Z,21.50
2018-03-03T07:32:21.798Z,23.40
2018-03-03T07:34:49.514Z,23.33
2018-03-03T07:37:17.117Z,23.43
2018-03-03T07:39:44.747Z,21.53
2018-03-03T07:42:12.447Z,24.00
2018-03-03T07:44:40.093Z,23.00
2018-03-03T07:47:07.888Z,23.13
2018-03-03T07:49:36.281Z,21.93
2018-03-03T07:52:03.899Z,22.17
2018-03-03T07:54:31.578Z,21.33
2018-03-03T07:57:12.277Z,20.73
2018-03-03T07:59:40.117Z,23.37
2018-03-03T08:02:08.554Z,23.13
2018-03-03T08:04:36.210Z,21.93
2018-03-03T08:07:04.653Z,20.20
2018-03-03T08:09:32.603Z,18.53
2018-03-03T08:12:01.129Z,23.40
2018-03-03T08:14:28.734Z,21.23
2018-03-03T08:16:56.335Z,21.97
2018-03-03T08:19:23.982Z,22.77
2018-03-03T08:21:52.374Z,22.00
2018-03-03T08:24:20.003Z,20.00
2018-03-03T08:26:48.427Z,20.07
2018-03-03T08:29:16.035Z,19.67
2018-03-03T08:31:44.559Z,20.10
2018-03-03T08:34:12.231Z,19.37
2018-03-03T08:36:39.946Z,19.53
2018-03-03T08:39:07.607Z,20.77
2018-03-03T08:41:36.264Z,20.23
2018-03-03T08:44:03.861Z,20.00
2018-03-03T08:46:31.522Z,18.17
2018-03-03T08:48:59.156Z,17.83
2018-03-03T08:51:26.787Z,16.83
2018-03-03T08:53:54.401Z,16.27
2018-03-03T08:56:22.782Z,18.70
2018-03-03T08:58:51.230Z,16.83
2018-03-03T09:01:20.356Z,15.63
2018-03-03T09:03:48.935Z,17.53
2018-03-03T09:06:17.294Z,16.00
2018-03-03T09:08:44.882Z,14.27
2018-03-03T09:11:12.514Z,14.47
2018-03-03T09:13:40.107Z,13.70
2018-03-03T09:16:07.774Z,15.03
2018-03-03T09:18:35.397Z,14.47
2018-03-03T09:21:03.066Z,15.93
2018-03-03T09:23:31.490Z,15.43
2018-03-03T09:25:59.171Z,15.50
2018-03-03T09:28:26.794Z,16.90
2018-03-03T09:30:54.505Z,17.37
2018-03-03T09:33:22.122Z,16.30
2018-03-03T09:35:49.751Z,16.43
2018-03-03T09:38:18.156Z,16.70
2018-03-03T09:40:45.795Z,16.20
2018-03-03T09:43:14.353Z,16.33
2018-03-03T09:45:42.662Z,16.97
2018-03-03T09:48:11.075Z,16.47
2018-03-03T09:50:38.741Z,17.67
2018-03-03T09:53:06.383Z,16.47
2018-03-03T09:55:34.018Z,16.50
2018-03-03T09:58:02.415Z,18.17
2018-03-03T10:00:30.022Z,15.97
2018-03-03T10:02:57.737Z,16.43
2018-03-03T10:05:25.385Z,17.63
2018-03-03T10:07:52.992Z,17.40
2018-03-03T10:10:20.649Z,18.20
2018-03-03T10:12:48.803Z,16.03
2018-03-03T10:15:16.644Z,17.53
2018-03-03T10:17:44.259Z,16.80
2018-03-03T10:20:12.018Z,20.57
2018-03-03T10:22:41.159Z,16.37
2018-03-03T10:25:09.921Z,14.93
2018-03-03T10:27:37.819Z,15.80
2018-03-03T10:30:05.438Z,15.20
2018-03-03T10:32:33.078Z,16.03
2018-03-03T10:35:00.745Z,16.70
2018-03-03T10:37:28.367Z,15.60
2018-03-03T10:39:56.779Z,16.47
2018-03-03T10:42:24.459Z,15.43
2018-03-03T10:44:52.078Z,15.10
2018-03-03T10:47:19.708Z,14.67
2018-03-03T10:49:48.144Z,14.67
2018-03-03T10:52:15.781Z,14.70
2018-03-03T10:54:43.442Z,15.53
2018-03-03T10:57:11.078Z,14.30
2018-03-03T10:59:39.498Z,14.90
2018-03-03T11:02:07.200Z,15.03
2018-03-03T11:04:34.847Z,14.40
2018-03-03T11:07:02.488Z,15.70
2018-03-03T11:09:30.141Z,13.40
2018-03-03T11:11:57.791Z,14.40
2018-03-03T11:14:25.511Z,15.00
2018-03-03T11:16:53.958Z,14.07
2018-03-03T11:19:23.135Z,13.27
2018-03-03T11:21:50.772Z,14.87
2018-03-03T11:24:18.453Z,12.97
2018-03-03T11:26:46.061Z,15.90
2018-03-03T11:29:13.679Z,15.73
2018-03-03T11:31:41.372Z,14.77
2018-03-03T11:34:08.998Z,15.80
2018-03-03T11:36:36.659Z,14.20
2018-03-03T11:39:04.279Z,14.43
2018-03-03T11:41:32.812Z,15.40
2018-03-03T11:44:00.409Z,14.80
2018-03-03T11:46:29.404Z,14.97
2018-03-03T11:48:57.807Z,14.70
2018-03-03T11:51:25.433Z,14.13
2018-03-03T11:53:53.066Z,16.00
2018-03-03T11:56:20.720Z,13.40
2018-03-03T11:58:48.348Z,15.67
2018-03-03T12:01:15.996Z,15.57
2018-03-03T12:03:44.442Z,15.03
2018-03-03T12:06:12.058Z,16.40
2018-03-03T12:08:39.748Z,13.67
2018-03-03T12:11:07.382Z,14.63
2018-03-03T12:13:35.069Z,16.07
2018-03-03T12:16:02.719Z,15.50
2018-03-03T12:18:30.320Z,17.00
2018-03-03T12:20:59.369Z,18.13
2018-03-03T12:23:26.967Z,15.33
2018-03-03T12:25:56.152Z,15.23
2018-03-03T12:28:23.811Z,14.87
2018-03-03T12:30:51.466Z,14.77
2018-03-03T12:33:19.137Z,14.13
2018-03-03T12:35:46.739Z,15.10
2018-03-03T12:38:14.380Z,15.70
2018-03-03T12:40:42.789Z,14.97
2018-03-03T12:43:10.411Z,15.37
2018-03-03T12:45:39.035Z,16.10
2018-03-03T12:48:06.781Z,16.60
2018-03-03T12:50:34.462Z,15.70
2018-03-03T12:53:02.054Z,15.53
2018-03-03T12:55:29.695Z,16.90
2018-03-03T12:57:57.294Z,16.00
2018-03-03T13:00:24.940Z,15.87
2018-03-03T13:02:52.621Z,15.70
2018-03-03T13:05:20.281Z,16.03
2018-03-03T13:07:47.891Z,17.93
2018-03-03T13:10:15.583Z,17.30
2018-03-03T13:12:43.332Z,16.57
2018-03-03T13:15:11.006Z,18.10
2018-03-03T13:17:38.609Z,15.60
2018-03-03T13:20:06.988Z,17.40
2018-03-03T13:22:34.625Z,16.93
2018-03-03T13:25:02.987Z,16.37
2018-03-03T13:27:31.464Z,17.13
2018-03-03T13:29:59.055Z,18.20
2018-03-03T13:32:27.463Z,16.60
2018-03-03T13:34:55.103Z,16.97
2018-03-03T13:37:23.749Z,16.73
2018-03-03T13:39:51.527Z,16.47
2018-03-03T13:42:19.183Z,19.43
2018-03-03T13:44:46.803Z,17.87
2018-03-03T13:47:14.580Z,17.87
2018-03-03T13:49:42.169Z,18.80
2018-03-03T13:52:09.774Z,19.30
2018-03-03T13:54:37.477Z,18.57
2018-03-03T13:57:05.074Z,18.27
2018-03-03T13:59:33.439Z,18.43
2018-03-03T14:02:01.842Z,18.87
2018-03-03T14:04:29.429Z,17.40
2018-03-03T14:06:57.270Z,17.50
2018-03-03T14:09:24.946Z,18.17
2018-03-03T14:11:52.590Z,16.20
2018-03-03T14:14:20.251Z,16.37
2018-03-03T14:16:47.936Z,17.73
2018-03-03T14:19:15.569Z,17.77
2018-03-03T14:21:43.288Z,16.53
2018-03-03T14:24:10.928Z,16.10
2018-03-03T14:26:38.564Z,17.60
2018-03-03T14:29:06.172Z,17.40
2018-03-03T14:31:33.823Z,15.93
2018-03-03T14:34:01.473Z,15.57
2018-03-03T14:36:29.101Z,16.90
2018-03-03T14:38:56.696Z,17.93
2018-03-03T14:41:24.341Z,16.93
2018-03-03T14:43:52.107Z,17.10
2018-03-03T14:46:19.726Z,17.03
2018-03-03T14:48:48.134Z,17.10
2018-03-03T14:51:15.811Z,16.67
2018-03-03T14:53:43.441Z,17.17
2018-03-03T14:56:11.537Z,16.63
2018-03-03T14:58:39.130Z,17.80
2018-03-03T15:01:06.801Z,17.30
2018-03-03T15:03:35.172Z,20.40
2018-03-03T15:06:03.589Z,18.50
2018-03-03T15:08:31.376Z,17.27
2018-03-03T15:10:58.975Z,18.23
2018-03-03T15:13:27.343Z,17.93
2018-03-03T15:15:55.010Z,18.87
2018-03-03T15:18:23.458Z,17.30
2018-03-03T15:20:51.124Z,17.10
2018-03-03T15:23:18.714Z,16.20
2018-03-03T15:25:47.089Z,16.63
2018-03-03T15:28:14.731Z,15.87
2018-03-03T15:30:42.363Z,15.90
2018-03-03T15:33:10.020Z,16.47
2018-03-03T15:35:38.771Z,17.07
2018-03-03T15:38:07.149Z,16.40
2018-03-03T15:40:35.630Z,16.43
2018-03-03T15:43:03.992Z,15.57
2018-03-03T15:45:32.397Z,14.13
2018-03-03T15:48:00.115Z,14.83
2018-03-03T15:50:27.744Z,15.17
2018-03-03T15:52:55.475Z,15.23
2018-03-03T15:55:23.111Z,13.87
2018-03-03T15:57:50.723Z,13.73
2018-03-03T16:00:18.346Z,14.40
2018-03-03T16:02:46.762Z,14.50
2018-03-03T16:05:14.370Z,15.97
2018-03-03T16:07:42.033Z,15.43
2018-03-03T16:10:09.634Z,14.93
2018-03-03T16:12:37.274Z,16.27
2018-03-03T16:15:05.656Z,14.90
2018-03-03T16:17:34.079Z,15.83
2018-03-03T16:20:02.413Z,15.87
2018-03-03T16:22:30.083Z,16.93
2018-03-03T16:24:57.710Z,15.47
2018-03-03T16:27:26.190Z,14.40
2018-03-03T16:29:53.833Z,15.20
2018-03-03T16:32:21.473Z,16.23
2018-03-03T16:34:49.082Z,15.50
2018-03-03T16:37:17.496Z,16.47
2018-03-03T16:39:45.490Z,15.83
2018-03-03T16:42:13.179Z,16.10
2018-03-03T16:44:40.787Z,17.07
2018-03-03T16:47:09.050Z,15.80
2018-03-03T16:49:36.712Z,15.53
2018-03-03T16:52:04.343Z,16.23
2018-03-03T16:54:32.789Z,15.80
2018-03-03T16:57:00.484Z,15.13
2018-03-03T16:59:28.922Z,16.20
2018-03-03T17:01:56.534Z,16.07
2018-03-03T17:04:25.011Z,16.13
2018-03-03T17:06:53.448Z,16.20
2018-03-03T17:09:21.088Z,15.40
2018-03-03T17:11:48.756Z,15.17
2018-03-03T17:14:16.358Z,16.73
2018-03-03T17:16:43.967Z,16.00
2018-03-03T17:19:11.604Z,15.90
2018-03-03T17:21:40.432Z,14.90
2018-03-03T17:24:08.096Z,16.20
2018-03-03T17:26:35.729Z,15.67
2018-03-03T17:29:03.393Z,16.37
2018-03-03T17:31:31.149Z,16.27
2018-03-03T17:33:58.796Z,15.27
2018-03-03T17:36:26.465Z,14.60
2018-03-03T17:38:54.074Z,15.13
2018-03-03T17:41:21.715Z,17.23
2018-03-03T17:43:49.360Z,15.33
2018-03-03T17:46:17.071Z,15.30
2018-03-03T17:48:44.722Z,15.87
2018-03-03T17:51:12.542Z,15.07
2018-03-03T17:53:41.437Z,15.60
2018-03-03T17:56:09.115Z,15.67
2018-03-03T17:58:36.775Z,15.60
2018-03-03T18:01:04.390Z,16.20
2018-03-03T18:03:32.772Z,14.73
2018-03-03T18:06:01.190Z,16.03
2018-03-03T18:08:28.813Z,16.43
2018-03-03T18:10:57.243Z,15.90
2018-03-03T18:13:31.855Z,14.80
2018-03-03T18:15:59.621Z,15.90
2018-03-03T18:18:31.404Z,18.50
2018-03-03T18:20:59.082Z,14.87
2018-03-03T18:23:27.618Z,15.90
2018-03-03T18:25:55.264Z,15.40
2018-03-03T18:28:22.914Z,16.87
2018-03-03T18:30:50.600Z,16.63
2018-03-03T18:33:18.226Z,16.93
2018-03-03T18:35:45.961Z,16.40
2018-03-03T18:38:14.426Z,15.17
2018-03-03T18:40:42.856Z,14.67
2018-03-03T18:43:10.467Z,16.40
2018-03-03T18:45:38.170Z,21.27
2018-03-03T18:48:05.808Z,17.27
2018-03-03T18:50:34.180Z,17.53
2018-03-03T18:53:02.644Z,16.60
2018-03-03T18:55:30.287Z,14.73
2018-03-03T18:57:57.979Z,18.07
2018-03-03T19:00:26.325Z,16.70
2018-03-03T19:02:53.967Z,16.20
2018-03-03T19:07:55.577Z,17.90
2018-03-03T19:10:23.282Z,16.10
2018-03-03T19:12:50.990Z,15.90
2018-03-03T19:15:18.666Z,17.90
2018-03-03T19:17:46.317Z,17.03
2018-03-03T19:20:13.914Z,18.07
2018-03-03T19:22:42.955Z,17.33
2018-03-03T19:25:10.556Z,18.33
2018-03-03T19:27:38.943Z,18.73
2018-03-03T19:30:07.367Z,16.67
2018-03-03T19:32:35.057Z,18.13
2018-03-03T19:35:02.666Z,18.13
2018-03-03T19:37:30.378Z,17.93
2018-03-03T19:39:58.046Z,18.97
2018-03-03T19:42:26.447Z,17.33
2018-03-03T19:44:54.812Z,16.73
2018-03-03T19:47:23.258Z,17.83
2018-03-03T19:49:50.954Z,16.00
2018-03-03T19:52:19.324Z,16.47
2018-03-03T19:54:47.751Z,17.13
2018-03-03T19:57:15.428Z,16.43
2018-03-03T19:59:43.032Z,18.10
2018-03-03T20:02:11.432Z,18.53
2018-03-03T20:04:39.080Z,15.80
2018-03-03T20:07:07.684Z,17.17
2018-03-03T20:09:35.680Z,17.57
2018-03-03T20:12:04.230Z,17.70
2018-03-03T20:14:32.023Z,16.90
2018-03-03T20:16:59.847Z,16.87
2018-03-03T20:19:29.116Z,20.20
2018-03-03T20:21:56.756Z,18.87
2018-03-03T20:24:24.396Z,18.07
2018-03-03T20:26:52.034Z,17.43
2018-03-03T20:29:19.680Z,19.23
2018-03-03T20:31:48.473Z,18.70
2018-03-03T20:34:16.143Z,18.40
2018-03-03T20:36:43.795Z,16.70
2018-03-03T20:39:12.762Z,18.63
2018-03-03T20:41:41.216Z,18.93
2018-03-03T20:44:08.872Z,18.93
2018-03-03T20:46:36.522Z,19.53
2018-03-03T20:49:04.127Z,16.97
2018-03-03T20:51:32.302Z,18.60
2018-03-03T20:53:59.931Z,18.53
2018-03-03T20:56:27.631Z,19.30
2018-03-03T20:59:04.677Z,18.47
2018-03-03T21:01:43.284Z,17.57
2018-03-03T21:04:10.910Z,18.73
2018-03-03T21:06:38.526Z,17.77
2018-03-03T21:09:06.173Z,18.00
2018-03-03T21:11:35.261Z,18.37
2018-03-03T21:14:02.926Z,18.83
2018-03-03T21:16:31.374Z,17.53
2018-03-03T21:18:59.048Z,17.90
2018-03-03T21:21:26.808Z,18.47
2018-03-03T21:23:54.450Z,20.17
2018-03-03T21:26:22.129Z,19.23
2018-03-03T21:28:49.747Z,17.70
2018-03-03T21:31:17.365Z,18.57
2018-03-03T21:33:45.505Z,18.17
2018-03-03T21:36:13.102Z,17.80
2018-03-03T21:38:40.709Z,16.60
2018-03-03T21:41:09.141Z,18.53
2018-03-03T21:43:36.746Z,17.33
2018-03-03T21:46:05.164Z,17.20
2018-03-03T21:48:32.864Z,17.83
2018-03-03T21:51:01.292Z,18.23
2018-03-03T21:53:28.943Z,18.53
2018-03-03T21:55:57.292Z,18.27
2018-03-03T21:58:33.438Z,18.30
2018-03-03T22:01:01.081Z,18.47
2018-03-03T22:03:28.766Z,19.43
2018-03-03T22:05:58.314Z,17.20
2018-03-03T22:08:26.422Z,17.93
2018-03-03T22:10:54.057Z,19.63
2018-03-03T22:13:21.681Z,19.40
2018-03-03T22:15:50.074Z,19.50
2018-03-03T22:18:18.654Z,18.47
2018-03-03T22:20:46.309Z,19.13
2018-03-03T22:23:14.682Z,19.07
2018-03-03T22:25:43.124Z,17.50
2018-03-03T22:28:10.767Z,18.47
2018-03-03T22:30:38.387Z,19.37
2018-03-03T22:33:06.810Z,18.63
2018-03-03T22:35:34.459Z,18.70
2018-03-03T22:38:02.094Z,19.40
2018-03-03T22:40:29.793Z,17.27
2018-03-03T22:42:57.394Z,19.70
2018-03-03T22:45:25.832Z,19.13
2018-03-03T22:47:53.488Z,19.70
2018-03-03T22:50:23.242Z,17.77
2018-03-03T22:52:51.602Z,18.63
2018-03-03T22:55:19.240Z,19.83
2018-03-03T22:57:46.872Z,19.23
2018-03-03T23:00:14.522Z,19.17
2018-03-03T23:02:42.919Z,18.93
2018-03-03T23:05:10.900Z,19.53
2018-03-03T23:07:38.552Z,18.73
2018-03-03T23:10:06.163Z,18.80
2018-03-03T23:12:33.767Z,20.07
2018-03-03T23:15:01.417Z,20.57
2018-03-03T23:17:29.019Z,19.27
2018-03-03T23:19:56.609Z,21.13
2018-03-03T23:22:24.238Z,19.80
2018-03-03T23:24:51.868Z,20.33
2018-03-03T23:27:19.492Z,19.03
2018-03-03T23:29:47.128Z,21.00
2018-03-03T23:32:14.794Z,20.00
2018-03-03T23:34:42.403Z,20.23
2018-03-03T23:37:10.082Z,20.23
2018-03-03T23:39:37.735Z,21.40
2018-03-03T23:42:05.589Z,20.33
2018-03-03T23:44:34.232Z,19.63
2018-03-03T23:47:02.609Z,21.10
2018-03-03T23:49:31.754Z,20.73
2018-03-03T23:51:59.436Z,22.27
2018-03-03T23:54:27.085Z,21.43
2018-03-03T23:56:54.778Z,20.60
2018-03-03T23:59:22.399Z,20.50
